Time;durP1;ratioP1;P1;durP2;ratioP2;P2;SDS_P1;SDS_P2;PMS_P1;PMS_P2;Temp;Humidity;BMP_temperature;BMP_pressure;BME280_temperature;BME280_humidity;BME280_pressure;Samples;Min_cycle;Max_cycle;Signal;HPM_P1;HPM_P2
2022/12/09 00:02:32;;;;;;;17.23;8.68;;;4.50;99.90;;;;;;5171085;28;20044;-77
2022/12/09 00:05:06;;;;;;;18.60;10.30;;;4.40;99.90;;;;;;5153104;28;20691;-76
2022/12/09 00:07:38;;;;;;;17.95;9.05;;;4.40;99.90;;;;;;5145197;28;20048;-77
2022/12/09 00:10:10;;;;;;;19.90;10.27;;;4.40;99.90;;;;;;5152956;28;20042;-75
2022/12/09 00:12:41;;;;;;;16.98;9.55;;;4.50;99.90;;;;;;5192750;28;20034;-75
2022/12/09 00:15:17;;;;;;;20.92;9.70;;;4.50;99.90;;;;;;5177475;28;20041;-76
2022/12/09 00:17:48;;;;;;;15.95;8.88;;;4.40;99.90;;;;;;5180228;28;20045;-78
2022/12/09 00:20:28;;;;;;;16.23;9.05;;;4.40;99.90;;;;;;5159555;28;20034;-77
2022/12/09 00:23:02;;;;;;;15.07;8.05;;;4.50;99.90;;;;;;5160852;28;20044;-75
2022/12/09 00:25:50;;;;;;;12.95;7.70;;;4.40;99.90;;;;;;5176282;28;20060;-76
2022/12/09 00:28:22;;;;;;;20.95;8.80;;;4.40;99.90;;;;;;5158691;28;20049;-74
2022/12/09 00:30:59;;;;;;;13.63;8.25;;;4.40;99.90;;;;;;5177758;28;20223;-75
2022/12/09 00:33:33;;;;;;;13.88;7.57;;;4.40;99.90;;;;;;5146358;28;20133;-76
2022/12/09 00:36:09;;;;;;;11.83;7.13;;;4.40;99.90;;;;;;5156553;28;20252;-76
2022/12/09 00:38:44;;;;;;;11.75;7.63;;;4.30;99.90;;;;;;5176322;28;20034;-75
2022/12/09 00:41:18;;;;;;;12.13;7.43;;;4.20;99.90;;;;;;5182779;28;20252;-74
2022/12/09 00:43:51;;;;;;;12.90;7.68;;;4.20;99.90;;;;;;5191875;28;20048;-75
2022/12/09 00:46:24;;;;;;;14.93;8.57;;;4.20;99.90;;;;;;5160500;28;20056;-76
2022/12/09 00:49:01;;;;;;;12.75;8.02;;;4.10;99.90;;;;;;5160734;28;20042;-75
2022/12/09 00:51:37;;;;;;;14.25;7.47;;;4.10;99.90;;;;;;5191348;28;20204;-77
2022/12/09 00:54:12;;;;;;;13.70;7.70;;;4.10;99.90;;;;;;5142525;28;20049;-73
2022/12/09 00:56:58;;;;;;;13.85;7.43;;;4.10;99.90;;;;;;5170921;28;20037;-73
2022/12/09 00:59:30;;;;;;;14.57;8.45;;;4.20;99.90;;;;;;5161273;28;20034;-77
2022/12/09 01:02:07;;;;;;;12.70;7.13;;;4.30;99.90;;;;;;5205638;23;20058;-60
2022/12/09 01:04:42;;;;;;;13.45;7.85;;;4.30;99.90;;;;;;5132649;28;20669;-59
2022/12/09 01:07:17;;;;;;;;;;;4.30;99.90;;;;;;5136778;28;20030;-60
2022/12/09 01:09:51;;;;;;;15.30;7.70;;;4.30;99.90;;;;;;5103390;28;19914;-60
2022/12/09 01:12:27;;;;;;;14.25;8.27;;;4.30;99.90;;;;;;5147239;28;20345;-59
2022/12/09 01:15:08;;;;;;;12.88;7.65;;;4.30;99.90;;;;;;5172868;28;20042;-60
2022/12/09 01:17:45;;;;;;;13.15;6.85;;;4.30;99.90;;;;;;5172796;28;20036;-59
2022/12/09 01:20:34;;;;;;;12.15;6.68;;;4.30;99.90;;;;;;5174414;28;20030;-60
2022/12/09 01:23:07;;;;;;;13.23;6.93;;;4.20;99.90;;;;;;5170503;28;20050;-60
2022/12/09 01:25:47;;;;;;;12.18;7.38;;;4.20;99.90;;;;;;5160506;28;20050;-60
2022/12/09 01:28:24;;;;;;;9.80;6.80;;;4.20;99.90;;;;;;5156609;28;20046;-60
2022/12/09 01:30:58;;;;;;;10.90;6.85;;;4.20;99.90;;;;;;5141016;28;20211;-60
2022/12/09 01:33:37;;;;;;;12.25;6.57;;;4.30;99.90;;;;;;5155456;28;20052;-59
2022/12/09 01:36:30;;;;;;;10.75;6.53;;;4.20;99.90;;;;;;5159841;28;20069;-60
2022/12/09 01:39:04;;;;;;;13.90;6.82;;;4.20;99.90;;;;;;5156231;28;20042;-59
2022/12/09 01:41:44;;;;;;;9.27;6.00;;;4.20;99.90;;;;;;5156270;28;20041;-60
2022/12/09 01:44:19;;;;;;;14.88;7.35;;;4.20;99.90;;;;;;5141602;28;20030;-60
2022/12/09 01:46:59;;;;;;;12.20;6.70;;;4.20;99.90;;;;;;5174231;28;20235;-60
2022/12/09 01:49:46;;;;;;;12.88;6.85;;;4.20;99.90;;;;;;5144012;28;20034;-60
2022/12/09 01:52:27;;;;;;;11.40;6.05;;;4.20;99.90;;;;;;5143966;28;20030;-61
2022/12/09 01:55:10;;;;;;;10.52;6.32;;;4.20;99.90;;;;;;5155215;28;20218;-60
2022/12/09 01:57:48;;;;;;;10.75;6.45;;;4.30;99.90;;;;;;5155614;28;20057;-60
2022/12/09 02:00:30;;;;;;;12.55;6.57;;;4.30;99.90;;;;;;5171218;28;20234;-60
2022/12/09 02:03:08;;;;;;;13.50;6.20;;;4.30;99.90;;;;;;5155903;28;20084;-60
2022/12/09 02:05:45;;;;;;;8.68;5.90;;;4.40;99.90;;;;;;5165121;28;20062;-60
2022/12/09 02:08:21;;;;;;;9.70;5.57;;;4.40;99.90;;;;;;5159494;28;20061;-60
2022/12/09 02:11:14;;;;;;;9.50;6.25;;;4.30;99.90;;;;;;5160297;28;20033;-60
2022/12/09 02:14:31;;;;;;;8.85;5.18;;;4.30;99.90;;;;;;5158289;28;20042;-60
2022/12/09 02:17:39;;;;;;;8.55;5.55;;;4.40;99.90;;;;;;5174605;28;20534;-62
2022/12/09 02:20:24;;;;;;;8.48;5.03;;;4.40;99.90;;;;;;5143279;28;20048;-60
2022/12/09 02:23:41;;;;;;;10.23;6.45;;;4.40;99.90;;;;;;5172715;28;20053;-60
2022/12/09 02:26:42;;;;;;;8.63;5.50;;;4.40;99.90;;;;;;5136845;28;20052;-61
2022/12/09 02:29:28;;;;;;;9.55;5.43;;;4.30;99.90;;;;;;5172266;28;20479;-60
2022/12/09 02:32:12;;;;;;;8.60;5.30;;;4.20;99.90;;;;;;5156492;28;20069;-59
2022/12/09 02:35:12;;;;;;;9.18;5.22;;;4.20;99.90;;;;;;5153839;28;20037;-61
2022/12/09 02:37:52;;;;;;;8.55;6.03;;;4.20;99.90;;;;;;5137115;28;20316;-60
2022/12/09 02:40:32;;;;;;;10.73;6.45;;;4.20;99.90;;;;;;5123398;28;20062;-59
2022/12/09 02:43:08;;;;;;;8.65;5.25;;;4.30;99.90;;;;;;5151697;28;20050;-60
2022/12/09 02:45:46;;;;;;;9.93;5.85;;;4.30;99.90;;;;;;5138027;28;20040;-59
2022/12/09 02:48:29;;;;;;;9.32;5.80;;;4.30;99.90;;;;;;5138490;28;20050;-60
2022/12/09 02:51:08;;;;;;;10.10;5.82;;;4.50;99.90;;;;;;5144359;28;20038;-62
2022/12/09 02:53:46;;;;;;;9.70;5.63;;;4.50;99.90;;;;;;5121808;28;20072;-59
2022/12/09 02:56:18;;;;;;;9.50;6.18;;;4.60;99.90;;;;;;5159041;28;20048;-60
2022/12/09 02:58:53;;;;;;;8.85;5.50;;;4.60;99.90;;;;;;5165867;28;20310;-59
2022/12/09 03:01:43;;;;;;;;;;;4.60;99.90;;;;;;5172642;28;20029;-60
2022/12/09 03:04:23;;;;;;;9.90;6.13;;;4.60;99.90;;;;;;5129658;28;19914;-58
2022/12/09 03:07:26;;;;;;;8.82;5.68;;;4.60;99.90;;;;;;5152651;28;20046;-60
2022/12/09 03:10:22;;;;;;;10.32;6.05;;;4.60;99.90;;;;;;5142334;28;20054;-60
2022/12/09 03:13:17;;;;;;;7.55;5.35;;;4.60;99.90;;;;;;5140917;28;20048;-60
2022/12/09 03:16:00;;;;;;;9.90;5.57;;;4.60;99.90;;;;;;5158255;28;20030;-60
2022/12/09 03:18:36;;;;;;;10.38;5.35;;;4.40;99.90;;;;;;5158930;28;20026;-62
2022/12/09 03:21:15;;;;;;;6.75;4.68;;;4.40;99.90;;;;;;5158537;28;20215;-59
2022/12/09 03:23:54;;;;;;;8.63;5.70;;;4.40;99.90;;;;;;5157709;28;20048;-60
2022/12/09 03:26:32;;;;;;;9.95;5.68;;;4.40;99.90;;;;;;5142648;28;20252;-59
2022/12/09 03:29:11;;;;;;;8.65;5.45;;;4.40;99.90;;;;;;5158193;28;20041;-60
2022/12/09 03:31:44;;;;;;;10.80;5.60;;;4.30;99.90;;;;;;5157473;28;20038;-60
2022/12/09 03:34:26;;;;;;;10.82;6.15;;;4.30;99.90;;;;;;5171945;28;20038;-59
2022/12/09 03:37:01;;;;;;;12.20;6.55;;;4.30;99.90;;;;;;5156194;28;20222;-61
2022/12/09 03:39:37;;;;;;;13.38;6.68;;;4.30;99.90;;;;;;5142048;28;20042;-60
2022/12/09 03:42:27;;;;;;;14.75;7.63;;;4.10;99.90;;;;;;5174201;28;20196;-60
2022/12/09 03:45:09;;;;;;;15.07;7.18;;;4.20;99.90;;;;;;5156488;28;20049;-59
2022/12/09 03:47:41;;;;;;;14.70;9.13;;;4.10;99.90;;;;;;5172728;28;20380;-61
2022/12/09 03:50:15;;;;;;;17.67;8.68;;;4.10;99.90;;;;;;5173756;28;20046;-59
2022/12/09 03:53:03;;;;;;;16.33;7.80;;;4.00;99.90;;;;;;5170684;28;20051;-60
2022/12/09 03:55:54;;;;;;;17.65;8.77;;;4.00;99.90;;;;;;5154406;28;20034;-60
2022/12/09 03:58:32;;;;;;;14.77;8.57;;;3.90;99.90;;;;;;5141866;28;20046;-60
2022/12/09 04:01:06;;;;;;;14.88;7.65;;;3.90;99.90;;;;;;5157502;28;20338;-61
2022/12/09 04:03:40;;;;;;;16.13;8.10;;;4.00;99.90;;;;;;5172077;28;20045;-59
2022/12/09 04:06:18;;;;;;;13.05;7.72;;;4.00;99.90;;;;;;5141316;28;20062;-61
2022/12/09 04:08:51;;;;;;;16.20;8.60;;;4.00;99.90;;;;;;5143543;28;20077;-60
2022/12/09 04:11:30;;;;;;;13.43;7.53;;;4.00;99.90;;;;;;5157312;28;20054;-60
2022/12/09 04:14:05;;;;;;;12.60;7.50;;;4.00;99.90;;;;;;5139510;28;20052;-61
2022/12/09 04:16:42;;;;;;;;;;;4.00;99.90;;;;;;5141330;28;20046;-60
2022/12/09 04:19:14;;;;;;;17.02;7.40;;;3.90;99.90;;;;;;5158495;28;19920;-60
2022/12/09 04:21:56;;;;;;;14.40;8.20;;;4.00;99.90;;;;;;5140516;28;20040;-59
2022/12/09 04:24:30;;;;;;;15.30;7.80;;;3.90;99.90;;;;;;5168222;28;20330;-60
2022/12/09 04:27:11;;;;;;;10.68;6.93;;;3.80;99.90;;;;;;5171062;28;20046;-61
2022/12/09 04:29:47;;;;;;;14.07;7.35;;;3.80;99.90;;;;;;5172910;28;20307;-60
2022/12/09 04:32:21;;;;;;;15.25;7.68;;;3.80;99.90;;;;;;5141489;28;20050;-60
2022/12/09 04:34:52;;;;;;;14.63;8.27;;;3.80;99.90;;;;;;5154486;28;20056;-59
2022/12/09 04:37:26;;;;;;;12.90;7.75;;;3.80;99.90;;;;;;5156332;28;20042;-59
2022/12/09 04:39:57;;;;;;;15.13;8.02;;;3.80;99.90;;;;;;5156552;28;20349;-60
2022/12/09 04:42:32;;;;;;;13.43;6.85;;;3.70;99.90;;;;;;5157055;28;20046;-59
2022/12/09 04:45:09;;;;;;;14.55;8.23;;;3.70;99.90;;;;;;5151458;28;20335;-62
2022/12/09 04:47:58;;;;;;;15.35;7.88;;;3.70;99.90;;;;;;5167838;28;20046;-61
2022/12/09 04:50:34;;;;;;;12.50;7.90;;;3.70;99.90;;;;;;5141325;28;20042;-59
2022/12/09 04:53:09;;;;;;;15.52;8.07;;;3.70;99.90;;;;;;5172990;28;20038;-60
2022/12/09 04:55:46;;;;;;;13.13;7.20;;;3.60;99.90;;;;;;5168059;28;20043;-61
2022/12/09 04:58:18;;;;;;;13.95;7.00;;;3.70;99.90;;;;;;5167612;28;20260;-60
2022/12/09 05:00:49;;;;;;;18.05;7.50;;;3.60;99.90;;;;;;5153045;28;20039;-61
2022/12/09 05:03:25;;;;;;;15.57;7.88;;;3.70;99.90;;;;;;5155218;28;20340;-60
2022/12/09 05:06:01;;;;;;;13.63;7.75;;;3.60;99.90;;;;;;5128445;28;20134;-59
2022/12/09 05:08:44;;;;;;;20.55;8.73;;;3.60;99.90;;;;;;5133483;28;20052;-60
2022/12/09 05:11:18;;;;;;;17.45;7.97;;;3.60;99.90;;;;;;5156974;28;20026;-59
2022/12/09 05:13:55;;;;;;;19.75;8.40;;;3.50;99.90;;;;;;5155177;28;20209;-61
2022/12/09 05:16:26;;;;;;;13.88;6.93;;;3.50;99.90;;;;;;5156853;28;20035;-60
2022/12/09 05:19:00;;;;;;;16.23;7.50;;;3.50;99.90;;;;;;5155801;28;20022;-60
2022/12/09 05:21:36;;;;;;;17.05;8.18;;;3.50;99.90;;;;;;5156271;28;20044;-62
2022/12/09 05:24:07;;;;;;;13.73;8.00;;;3.50;99.90;;;;;;5155607;28;20042;-59
2022/12/09 05:26:45;;;;;;;15.05;7.22;;;3.40;99.90;;;;;;5162662;28;20038;-59
2022/12/09 05:29:19;;;;;;;17.20;8.18;;;3.40;99.90;;;;;;5156987;28;20042;-61
2022/12/09 05:31:51;;;;;;;15.95;7.50;;;3.40;99.90;;;;;;5173942;28;20384;-61
2022/12/09 05:34:26;;;;;;;15.43;8.07;;;3.40;99.90;;;;;;5155259;28;20034;-60
2022/12/09 05:37:01;;;;;;;17.95;8.38;;;3.40;99.90;;;;;;5151722;28;20341;-59
2022/12/09 05:39:37;;;;;;;14.88;8.00;;;3.40;99.90;;;;;;5146947;28;20210;-61
2022/12/09 05:42:14;;;;;;;22.58;7.90;;;3.30;99.90;;;;;;5171173;28;20041;-60
2022/12/09 05:44:48;;;;;;;15.65;7.57;;;3.20;99.90;;;;;;5154987;28;20043;-60
2022/12/09 05:47:22;;;;;;;15.85;8.57;;;3.20;99.90;;;;;;5151659;28;20044;-61
2022/12/09 05:49:58;;;;;;;19.10;8.35;;;3.30;99.90;;;;;;5139850;28;20038;-59
2022/12/09 05:52:34;;;;;;;16.60;8.30;;;3.20;99.90;;;;;;5139786;28;20038;-59
2022/12/09 05:55:12;;;;;;;17.05;7.82;;;3.10;99.90;;;;;;5139175;28;20038;-60
2022/12/09 05:57:48;;;;;;;15.70;8.55;;;3.00;99.90;;;;;;5183515;28;20042;-60
2022/12/09 06:00:23;;;;;;;16.27;8.10;;;3.00;99.90;;;;;;5140186;28;20048;-60
2022/12/09 06:02:55;;;;;;;16.60;8.00;;;3.00;99.90;;;;;;5153766;28;20044;-61
2022/12/09 06:05:35;;;;;;;18.65;9.27;;;3.00;99.90;;;;;;5136269;28;20051;-61
2022/12/09 06:08:09;;;;;;;15.73;7.75;;;3.10;99.90;;;;;;5120115;28;20042;-60
2022/12/09 06:10:44;;;;;;;18.45;8.95;;;3.20;99.90;;;;;;5157337;28;20049;-61
2022/12/09 06:13:20;;;;;;;17.63;8.07;;;3.10;99.90;;;;;;5149863;28;20070;-61
2022/12/09 06:16:01;;;;;;;13.95;6.82;;;3.20;99.90;;;;;;5155987;28;20034;-60
2022/12/09 06:18:38;;;;;;;16.42;8.23;;;3.00;99.90;;;;;;5159738;28;20034;-60
2022/12/09 06:21:18;;;;;;;15.95;8.95;;;3.00;99.90;;;;;;5143017;28;20057;-60
2022/12/09 06:23:59;;;;;;;16.05;8.57;;;3.00;99.90;;;;;;5158506;28;20038;-61
2022/12/09 06:26:35;;;;;;;17.90;9.18;;;3.10;99.90;;;;;;5155396;28;20049;-59
2022/12/09 06:29:09;;;;;;;15.45;8.57;;;3.20;99.90;;;;;;5171107;28;20042;-60
2022/12/09 06:31:41;;;;;;;16.08;9.20;;;3.10;99.90;;;;;;5124808;28;20223;-60
2022/12/09 06:34:15;;;;;;;13.57;8.40;;;2.90;99.90;;;;;;5154659;28;20038;-61
2022/12/09 06:36:49;;;;;;;16.00;8.88;;;3.00;99.90;;;;;;5125969;28;20343;-61
2022/12/09 06:39:23;;;;;;;18.23;8.93;;;3.00;99.90;;;;;;5158773;28;20042;-60
2022/12/09 06:42:03;;;;;;;19.67;9.18;;;3.10;99.90;;;;;;5171930;28;20054;-60
2022/12/09 06:44:34;;;;;;;16.30;8.63;;;3.10;99.90;;;;;;5135115;28;20034;-61
2022/12/09 06:47:08;;;;;;;19.17;9.68;;;3.10;99.90;;;;;;5139121;28;20323;-61
2022/12/09 06:49:40;;;;;;;16.65;9.23;;;3.20;99.90;;;;;;5137895;28;20044;-60
2022/12/09 06:52:14;;;;;;;20.30;8.80;;;3.20;99.90;;;;;;5143444;28;20038;-61
2022/12/09 06:54:56;;;;;;;;;;;3.20;99.90;;;;;;5139013;28;20031;-60
2022/12/09 06:57:38;;;;;;;15.75;8.95;;;3.20;99.90;;;;;;5132759;28;19914;-61
2022/12/09 07:00:17;;;;;;;17.15;8.65;;;3.20;99.90;;;;;;5122733;28;20043;-60
2022/12/09 07:02:49;;;;;;;16.73;9.20;;;3.20;99.90;;;;;;5152078;28;20215;-62
2022/12/09 07:05:26;;;;;;;19.52;9.48;;;3.10;99.90;;;;;;5131211;28;20060;-61
2022/12/09 07:08:03;;;;;;;18.30;9.63;;;3.10;99.90;;;;;;5115511;29;20342;-61
2022/12/09 07:10:40;;;;;;;12.85;7.68;;;3.10;99.90;;;;;;5117751;29;20051;-60
2022/12/09 07:13:13;;;;;;;15.30;8.63;;;3.10;99.90;;;;;;5100512;29;20074;-60
2022/12/09 07:15:45;;;;;;;17.48;9.70;;;3.00;99.90;;;;;;5147715;28;20196;-59
2022/12/09 07:18:22;;;;;;;16.48;8.52;;;3.10;99.90;;;;;;5116722;29;20062;-60
2022/12/09 07:21:05;;;;;;;18.25;9.27;;;3.10;99.90;;;;;;5125662;28;20362;-60
2022/12/09 07:23:39;;;;;;;20.35;9.65;;;3.10;99.90;;;;;;5109111;29;20294;-59
2022/12/09 07:26:18;;;;;;;15.00;8.55;;;3.20;99.90;;;;;;5132202;29;20132;-60
2022/12/09 07:28:55;;;;;;;14.98;8.38;;;3.10;99.90;;;;;;5116873;29;20045;-60
2022/12/09 07:31:39;;;;;;;15.55;8.40;;;3.20;99.90;;;;;;5135064;28;20282;-60
2022/12/09 07:34:19;;;;;;;15.25;8.60;;;3.30;99.90;;;;;;5171369;28;20327;-60
2022/12/09 07:36:56;;;;;;;17.10;9.40;;;3.30;99.90;;;;;;5154025;28;20027;-60
2022/12/09 07:39:31;;;;;;;16.80;8.85;;;3.40;99.90;;;;;;5160405;28;20028;-60
2022/12/09 07:42:05;;;;;;;;;;;3.40;99.90;;;;;;5183730;28;20243;-62
2022/12/09 07:44:36;;;;;;;13.15;8.48;;;3.40;99.90;;;;;;5142356;28;20143;-59
2022/12/09 07:47:09;;;;;;;13.07;7.82;;;3.30;99.90;;;;;;5151157;28;20061;-60
2022/12/09 07:49:41;;;;;;;15.52;8.75;;;3.40;99.90;;;;;;5146123;28;20044;-61
2022/12/09 07:52:13;;;;;;;18.55;8.95;;;3.40;99.90;;;;;;5164802;28;20042;-59
2022/12/09 07:54:44;;;;;;;12.77;7.63;;;3.40;99.90;;;;;;5156254;28;20254;-60
2022/12/09 07:57:18;;;;;;;17.42;8.80;;;3.40;99.90;;;;;;5167931;28;20044;-61
2022/12/09 07:59:56;;;;;;;21.42;10.27;;;3.40;99.90;;;;;;5173664;28;20048;-60
2022/12/09 08:02:37;;;;;;;16.05;8.43;;;3.40;99.90;;;;;;5154557;28;20049;-60
2022/12/09 08:05:16;;;;;;;13.75;8.32;;;3.30;99.90;;;;;;5141110;28;20051;-60
2022/12/09 08:07:50;;;;;;;18.65;8.55;;;3.30;99.90;;;;;;5130490;28;20037;-60
2022/12/09 08:10:22;;;;;;;15.57;8.48;;;3.30;99.90;;;;;;5136617;28;20529;-61
2022/12/09 08:12:56;;;;;;;17.10;9.70;;;3.30;99.90;;;;;;5141767;28;20041;-60
2022/12/09 08:15:28;;;;;;;19.13;9.43;;;3.30;99.90;;;;;;5173285;28;20048;-60
2022/12/09 08:18:06;;;;;;;19.20;8.18;;;3.30;99.90;;;;;;5157810;28;20271;-60
2022/12/09 08:20:39;;;;;;;23.77;11.10;;;3.30;99.90;;;;;;5174168;28;20212;-59
2022/12/09 08:23:13;;;;;;;16.67;9.13;;;3.30;99.90;;;;;;5171420;28;20042;-61
2022/12/09 08:25:50;;;;;;;18.20;9.43;;;3.40;99.90;;;;;;5171240;28;20034;-60
2022/12/09 08:28:23;;;;;;;17.95;8.98;;;3.50;99.90;;;;;;5152400;28;20119;-59
2022/12/09 08:30:56;;;;;;;20.45;10.40;;;3.50;99.90;;;;;;5152483;28;20047;-59
2022/12/09 08:33:27;;;;;;;17.33;9.75;;;3.60;99.90;;;;;;5137228;28;20040;-61
2022/12/09 08:36:06;;;;;;;1582.60;693.40;;;3.60;99.90;;;;;;5153692;28;20030;-60
2022/12/09 08:38:44;;;;;;;1999.90;999.90;;;3.60;99.90;;;;;;5155904;28;20319;-60
2022/12/09 08:41:19;;;;;;;1999.90;975.53;;;3.60;99.90;;;;;;5143566;28;20048;-60
2022/12/09 08:43:51;;;;;;;748.38;328.90;;;3.60;99.90;;;;;;5165227;28;20039;-60
2022/12/09 08:46:22;;;;;;;1215.40;507.92;;;3.70;99.90;;;;;;5147852;28;20057;-60
2022/12/09 08:49:00;;;;;;;315.48;130.13;;;3.80;99.90;;;;;;5172200;28;20068;-60
2022/12/09 08:51:32;;;;;;;1977.53;699.65;;;3.90;99.90;;;;;;5172576;28;20030;-61
2022/12/09 08:54:05;;;;;;;854.22;533.33;;;3.90;99.90;;;;;;5170530;28;20060;-61
2022/12/09 08:56:38;;;;;;;115.50;76.53;;;3.90;99.90;;;;;;5152232;28;20349;-60
2022/12/09 08:59:09;;;;;;;89.95;61.53;;;3.90;99.90;;;;;;5156205;28;20046;-59
2022/12/09 09:01:41;;;;;;;115.57;102.45;;;4.00;99.90;;;;;;5138355;28;20052;-60
2022/12/09 09:04:17;;;;;;;28.88;19.67;;;3.90;99.90;;;;;;5145079;28;20042;-59
2022/12/09 09:06:51;;;;;;;315.88;263.70;;;3.80;99.90;;;;;;5152198;28;20051;-60
2022/12/09 09:09:22;;;;;;;;;;;3.90;99.90;;;;;;5171810;28;20053;-59
2022/12/09 09:11:54;;;;;;;27.77;16.98;;;3.90;99.90;;;;;;5139783;28;19916;-60
2022/12/09 09:14:41;;;;;;;61.60;42.22;;;4.00;99.90;;;;;;5156217;28;20234;-61
2022/12/09 09:17:15;;;;;;;31.42;20.55;;;4.10;99.90;;;;;;5171122;28;20040;-60
2022/12/09 09:19:48;;;;;;;27.55;18.23;;;4.20;99.90;;;;;;5136016;28;20023;-60
2022/12/09 09:22:22;;;;;;;30.67;20.33;;;4.10;99.90;;;;;;5135818;28;20043;-60
2022/12/09 09:24:54;;;;;;;101.88;71.20;;;4.10;99.90;;;;;;5135853;28;20026;-59
2022/12/09 09:27:25;;;;;;;26.40;17.20;;;4.10;99.90;;;;;;5138246;28;20046;-59
2022/12/09 09:30:03;;;;;;;166.75;127.32;;;4.20;99.90;;;;;;5138931;28;20054;-60
2022/12/09 09:32:37;;;;;;;29.65;16.60;;;4.30;99.90;;;;;;5171985;28;20203;-61
2022/12/09 09:35:14;;;;;;;25.50;14.90;;;4.30;99.90;;;;;;5155245;28;20076;-60
2022/12/09 09:38:04;;;;;;;27.75;16.75;;;4.30;99.90;;;;;;5167043;28;20345;-60
2022/12/09 09:40:39;;;;;;;49.03;40.25;;;4.20;99.90;;;;;;5140231;28;20034;-60
2022/12/09 09:43:20;;;;;;;20.80;12.07;;;4.20;99.90;;;;;;5135516;28;20039;-60
2022/12/09 09:46:00;;;;;;;36.17;23.73;;;4.30;99.90;;;;;;5159724;28;20048;-63
2022/12/09 09:48:40;;;;;;;22.85;10.38;;;4.20;99.90;;;;;;5154679;28;20026;-59
2022/12/09 09:51:18;;;;;;;23.17;12.80;;;4.20;99.90;;;;;;5159217;28;20046;-59
2022/12/09 09:53:53;;;;;;;25.25;11.02;;;4.20;99.90;;;;;;5165085;28;20038;-61
2022/12/09 09:57:22;;;;;;;18.98;9.93;;;4.20;99.90;;;;;;5172335;28;20038;-60
2022/12/09 10:00:06;;;;;;;44.65;33.33;;;4.30;99.90;;;;;;5175095;28;20037;-61
2022/12/09 10:02:57;;;;;;;131.50;94.70;;;4.40;99.90;;;;;;5142656;28;20064;-61
2022/12/09 10:05:50;;;;;;;37.78;26.10;;;4.50;99.90;;;;;;5161200;28;20058;-59
2022/12/09 10:08:34;;;;;;;43.70;27.75;;;4.50;99.90;;;;;;5150246;28;20345;-59
2022/12/09 10:11:26;;;;;;;48.63;31.02;;;4.60;99.90;;;;;;5158545;28;20052;-62
2022/12/09 10:14:26;;;;;;;30.58;18.05;;;4.70;99.90;;;;;;5174674;28;20037;-60
2022/12/09 10:17:28;;;;;;;104.63;77.28;;;4.80;99.90;;;;;;5174148;28;20319;-60
2022/12/09 10:20:12;;;;;;;112.82;90.10;;;4.60;99.90;;;;;;5173570;28;20037;-61
2022/12/09 10:22:49;;;;;;;;;;;4.60;99.90;;;;;;5169834;28;20026;-61
2022/12/09 10:25:34;;;;;;;45.20;30.55;;;4.60;99.90;;;;;;5153324;28;20167;-60
2022/12/09 10:28:28;;;;;;;;;;;4.60;99.90;;;;;;5160765;28;20330;-61
2022/12/09 10:31:02;;;;;;;37.83;27.92;;;4.50;99.90;;;;;;5144094;28;19915;-59
2022/12/09 10:33:48;;;;;;;33.45;23.23;;;4.60;99.90;;;;;;5155847;28;20034;-60
2022/12/09 10:36:29;;;;;;;21.17;11.52;;;4.60;99.90;;;;;;5150870;28;20044;-60
2022/12/09 10:39:04;;;;;;;20.55;10.68;;;4.50;99.90;;;;;;5180591;28;20064;-61
2022/12/09 10:44:47;;;;;;;16.80;8.60;;;4.80;99.90;;;;;;5184421;28;20041;-60
2022/12/09 10:47:21;;;;;;;16.60;8.90;;;4.90;99.90;;;;;;5160240;28;20048;-60
2022/12/09 10:49:59;;;;;;;24.98;14.90;;;5.00;99.90;;;;;;5158265;28;20054;-60
2022/12/09 10:52:43;;;;;;;24.92;14.10;;;5.10;99.90;;;;;;5145911;28;20040;-61
2022/12/09 10:55:35;;;;;;;25.67;14.70;;;5.10;99.90;;;;;;5157431;28;20050;-60
2022/12/09 10:58:31;;;;;;;20.75;11.05;;;4.90;99.90;;;;;;5143098;28;20048;-61
2022/12/09 11:01:15;;;;;;;23.92;13.48;;;5.10;99.90;;;;;;5155782;28;20046;-61
2022/12/09 11:03:53;;;;;;;19.15;12.18;;;5.20;99.90;;;;;;5150140;28;20042;-60
2022/12/09 11:06:38;;;;;;;17.40;10.57;;;5.30;99.90;;;;;;5135629;28;20042;-60
2022/12/09 11:09:23;;;;;;;24.05;16.38;;;5.40;99.90;;;;;;5163063;28;20323;-61
2022/12/09 11:11:57;;;;;;;18.92;12.02;;;5.40;99.90;;;;;;5150625;28;20033;-59
2022/12/09 11:14:39;;;;;;;38.30;25.77;;;5.40;99.90;;;;;;5129067;28;20208;-60
2022/12/09 11:17:34;;;;;;;18.85;12.38;;;5.60;99.90;;;;;;5152218;28;20208;-59
2022/12/09 11:20:19;;;;;;;12.30;7.38;;;5.70;99.90;;;;;;5150076;28;20044;-60
2022/12/09 11:23:11;;;;;;;11.25;6.80;;;5.90;99.90;;;;;;5147604;28;20458;-62
2022/12/09 11:26:32;;;;;;;12.10;6.63;;;6.00;99.90;;;;;;5174472;28;20060;-61
2022/12/09 11:29:17;;;;;;;10.68;6.47;;;6.10;99.90;;;;;;5125504;28;20045;-68
2022/12/09 11:31:51;;;;;;;11.55;8.25;;;6.20;99.90;;;;;;5174301;28;20239;-63
2022/12/09 11:34:30;;;;;;;16.13;9.15;;;6.20;99.90;;;;;;5152168;28;20038;-61
2022/12/09 11:37:10;;;;;;;13.43;6.63;;;6.30;99.90;;;;;;5146150;28;20046;-62
2022/12/09 11:39:50;;;;;;;99.30;70.43;;;6.30;99.90;;;;;;5149493;28;20997;-62
2022/12/09 11:42:27;;;;;;;139.52;82.95;;;6.20;99.90;;;;;;5145977;28;20056;-63
2022/12/09 11:45:17;;;;;;;21.85;13.48;;;6.20;99.90;;;;;;5166321;28;20034;-61
2022/12/09 11:47:49;;;;;;;20.15;12.02;;;6.20;99.90;;;;;;5157120;28;20327;-63
2022/12/09 11:50:34;;;;;;;16.60;12.23;;;6.20;99.90;;;;;;5147207;28;20350;-61
2022/12/09 11:53:12;;;;;;;30.90;22.35;;;6.20;99.90;;;;;;5176462;28;20253;-61
2022/12/09 11:56:02;;;;;;;50.33;37.97;;;6.00;99.90;;;;;;5170924;28;20050;-62
2022/12/09 11:58:51;;;;;;;28.60;20.90;;;6.10;99.90;;;;;;5139455;28;20041;-61
2022/12/09 12:01:52;;;;;;;21.13;15.85;;;6.10;99.90;;;;;;5148739;28;20038;-62
2022/12/09 12:04:58;;;;;;;18.60;11.30;;;6.20;99.90;;;;;;5120780;28;20045;-62
2022/12/09 12:07:46;;;;;;;15.95;10.80;;;6.10;99.90;;;;;;5140221;28;20048;-64
2022/12/09 12:10:36;;;;;;;25.13;17.33;;;6.00;99.90;;;;;;5173570;28;20247;-63
2022/12/09 12:13:26;;;;;;;9.85;6.47;;;6.00;99.90;;;;;;5140057;28;20048;-63
2022/12/09 12:16:19;;;;;;;12.18;8.10;;;5.90;99.90;;;;;;5173193;28;20029;-61
2022/12/09 12:19:25;;;;;;;10.32;6.35;;;5.90;99.90;;;;;;5184251;28;20349;-61
2022/12/09 12:22:25;;;;;;;12.43;6.55;;;5.90;99.90;;;;;;5149807;28;20343;-61
2022/12/09 12:26:26;;;;;;;10.93;6.05;;;6.10;99.90;;;;;;5155934;28;20030;-62
2022/12/09 12:29:23;;;;;;;361.08;300.85;;;6.00;99.90;;;;;;5010352;29;20050;-61
2022/12/09 12:32:14;;;;;;;18.67;13.27;;;6.00;99.90;;;;;;4994549;29;20050;-62
2022/12/09 12:34:57;;;;;;;17.45;12.40;;;6.20;99.90;;;;;;4980459;29;20054;-62
2022/12/09 12:37:49;;;;;;;184.65;151.68;;;6.30;99.90;;;;;;4994530;29;20133;-62
2022/12/09 12:40:56;;;;;;;15.85;9.57;;;6.20;99.90;;;;;;4980264;29;20073;-62
2022/12/09 12:47:04;;;;;;;9.90;6.18;;;6.40;99.90;;;;;;4992514;29;20038;-61
2022/12/09 12:50:10;;;;;;;9.88;6.03;;;6.60;99.90;;;;;;4992880;29;20040;-61
2022/12/09 12:53:03;;;;;;;11.50;7.18;;;6.70;99.90;;;;;;4983801;29;20363;-62
2022/12/09 12:56:03;;;;;;;12.20;7.82;;;6.70;99.90;;;;;;4995178;29;20038;-64
2022/12/09 12:58:47;;;;;;;12.10;6.93;;;6.60;99.90;;;;;;4995798;29;20171;-62
2022/12/09 13:01:58;;;;;;;15.25;8.77;;;6.80;99.90;;;;;;5070622;29;20044;-62
2022/12/09 13:04:44;;;;;;;11.18;6.90;;;6.90;99.90;;;;;;5089328;28;20052;-60
2022/12/09 13:07:45;;;;;;;28.80;19.73;;;6.90;99.90;;;;;;5155486;28;20046;-62
2022/12/09 13:10:45;;;;;;;10.77;7.60;;;6.90;99.90;;;;;;5129348;28;20051;-63
2022/12/09 13:14:05;;;;;;;13.68;6.95;;;6.80;99.90;;;;;;5148719;28;20052;-61
2022/12/09 13:16:43;;;;;;;20.20;13.55;;;6.80;99.90;;;;;;5090408;29;20041;-61
2022/12/09 13:19:53;;;;;;;14.77;8.13;;;6.80;99.90;;;;;;5073496;29;20048;-62
2022/12/09 13:22:45;;;;;;;13.63;7.07;;;6.70;99.90;;;;;;5074621;29;20058;-62
2022/12/09 13:25:19;;;;;;;68.60;46.65;;;6.60;99.90;;;;;;5073345;29;20052;-63
2022/12/09 13:28:05;;;;;;;12.75;7.63;;;6.40;99.90;;;;;;5089231;29;20321;-61
2022/12/09 13:31:19;;;;;;;22.65;7.45;;;6.40;99.90;;;;;;5072729;29;20048;-63
2022/12/09 13:34:27;;;;;;;11.38;7.15;;;6.40;99.90;;;;;;4999708;29;20081;-62
2022/12/09 13:36:59;;;;;;;17.50;9.93;;;6.10;99.90;;;;;;4994114;29;20053;-62
2022/12/09 13:39:39;;;;;;;16.05;7.28;;;6.20;99.90;;;;;;4996143;29;20042;-62
2022/12/09 13:45:42;;;;;;;13.55;8.23;;;6.20;99.90;;;;;;5008781;29;20139;-62
2022/12/09 13:48:17;;;;;;;14.52;8.25;;;6.50;99.90;;;;;;4995576;29;20053;-62
2022/12/09 13:50:50;;;;;;;16.38;9.18;;;6.50;99.90;;;;;;5008535;29;20049;-62
2022/12/09 13:53:50;;;;;;;14.10;8.23;;;6.50;99.90;;;;;;5033153;29;20331;-62
2022/12/09 13:56:33;;;;;;;14.90;7.47;;;6.30;99.90;;;;;;5047344;29;20386;-62
2022/12/09 13:59:25;;;;;;;17.33;8.38;;;6.00;99.90;;;;;;5049414;29;20040;-63
2022/12/09 14:02:30;;;;;;;13.77;8.40;;;6.00;99.90;;;;;;5047292;29;20090;-64
2022/12/09 14:05:25;;;;;;;18.17;12.15;;;6.40;99.90;;;;;;5039694;29;20061;-63
2022/12/09 14:08:23;;;;;;;71.15;44.47;;;6.50;99.90;;;;;;5049300;29;20048;-62